Time;durP1;ratioP1;P1;durP2;ratioP2;P2;SDS_P1;SDS_P2;PMS_P1;PMS_P2;Temp;Humidity;BMP_temperature;BMP_pressure;BME280_temperature;BME280_humidity;BME280_pressure;Samples;Min_cycle;Max_cycle;Signal;HPM_P1;HPM_P2
2022/02/02 00:00:35;;;;;;;29.70;11.22;;;;;;;-0.34;74.51;99408.72;1425762;91;21457;-87
2022/02/02 00:03:10;;;;;;;25.17;9.85;;;;;;;-0.31;74.51;99405.91;1428888;91;21502;-88
2022/02/02 00:08:26;;;;;;;27.22;9.93;;;;;;;-0.29;74.73;99412.67;1430422;91;21472;-90
2022/02/02 00:13:44;;;;;;;23.47;9.68;;;;;;;-0.28;74.95;99409.13;1428003;91;22660;-90
2022/02/02 00:19:08;;;;;;;21.82;10.93;;;;;;;-0.23;74.76;99414.03;1426727;91;21413;-93
2022/02/02 00:21:29;;;;;;;19.05;10.68;;;;;;;-0.23;74.92;99416.63;1430340;91;21961;-89
2022/02/02 00:23:59;;;;;;;21.48;10.40;;;;;;;-0.19;74.81;99410.27;1432538;91;22250;-88
2022/02/02 00:26:30;;;;;;;22.25;10.55;;;;;;;-0.15;74.71;99409.59;1441626;91;21471;-89
2022/02/02 00:29:00;;;;;;;16.02;8.05;;;;;;;-0.15;74.87;99394.80;1435053;91;21530;-91
2022/02/02 00:31:29;;;;;;;16.00;8.55;;;;;;;-0.13;75.01;99390.34;1431008;91;21516;-89
2022/02/02 00:34:01;;;;;;;20.50;8.78;;;;;;;-0.11;75.14;99402.78;1433981;91;21442;-89
2022/02/02 00:36:25;;;;;;;22.50;9.40;;;;;;;-0.06;74.94;99403.31;1402729;91;22588;-90
2022/02/02 00:38:52;;;;;;;25.57;10.45;;;;;;;-0.04;75.12;99404.48;1438936;91;21463;-89
2022/02/02 00:41:19;;;;;;;36.73;12.50;;;;;;;0.01;75.06;99401.58;1440091;91;21516;-88
2022/02/02 00:43:51;;;;;;;18.98;8.23;;;;;;;0.04;75.04;99398.30;1431384;91;23118;-88
2022/02/02 00:46:15;;;;;;;24.43;9.45;;;;;;;0.04;75.28;99403.97;1433805;91;21507;-89
2022/02/02 00:48:48;;;;;;;28.05;10.08;;;;;;;0.03;75.76;99402.28;1436077;91;21457;-92
2022/02/02 00:51:16;;;;;;;18.17;9.83;;;;;;;0.03;76.14;99403.14;1429705;91;21493;-90
2022/02/02 00:53:40;;;;;;;25.30;8.80;;;;;;;0.02;77.09;99400.63;1425548;91;24232;-90
2022/02/02 00:56:07;;;;;;;19.48;8.33;;;;;;;-0.04;78.77;99394.91;1401332;93;21365;-90
2022/02/02 00:58:36;;;;;;;24.67;10.33;;;;;;;-0.11;79.32;99393.68;1408658;92;21771;-89
2022/02/02 01:01:03;;;;;;;21.48;9.05;;;;;;;-0.12;79.71;99393.30;1407622;92;21782;-88
2022/02/02 01:03:31;;;;;;;17.75;8.63;;;;;;;-0.19;81.70;99389.47;1395726;93;21599;-88
2022/02/02 01:06:00;;;;;;;17.00;8.33;;;;;;;-0.22;82.74;99384.47;1377903;93;21557;-86
2022/02/02 01:08:48;;;;;;;19.75;9.28;;;;;;;-0.28;83.69;99384.42;1381555;93;21609;-88
2022/02/02 01:19:38;;;;;;;19.67;9.73;;;;;;;-0.36;85.77;99385.88;1380951;95;21573;-85
2022/02/02 01:22:17;;;;;;;21.40;8.90;;;;;;;-0.38;86.95;99376.04;1390305;94;21609;-87
2022/02/02 01:30:11;;;;;;;22.95;10.95;;;;;;;-0.52;91.79;99361.37;1371320;95;23619;-87
2022/02/02 01:32:39;;;;;;;22.75;11.65;;;;;;;-0.54;91.54;99352.39;1375614;94;21402;-91
2022/02/02 01:35:14;;;;;;;20.45;10.25;;;;;;;-0.54;91.85;99346.37;1374923;95;21424;-91
2022/02/02 01:37:36;;;;;;;25.52;9.15;;;;;;;-0.55;92.28;99345.51;1379784;94;22334;-91
2022/02/02 01:40:13;;;;;;;19.32;8.63;;;;;;;-0.52;92.71;99328.44;1385934;93;23461;-90
2022/02/02 01:42:43;;;;;;;23.67;9.33;;;;;;;-0.52;92.26;99327.58;1382703;94;21476;-87
2022/02/02 01:45:14;;;;;;;20.05;9.05;;;;;;;-0.50;91.59;99329.14;1375444;94;21475;-89
2022/02/02 01:47:43;;;;;;;19.25;9.85;;;;;;;-0.49;92.08;99328.22;1382156;94;21490;-89
2022/02/02 01:50:21;;;;;;;16.57;9.15;;;;;;;-0.49;92.63;99328.67;1379926;95;21669;-87
2022/02/02 01:55:38;;;;;;;18.62;10.50;;;;;;;-0.47;92.19;99326.80;1428798;91;21538;-89
2022/02/02 01:58:15;;;;;;;21.20;10.30;;;;;;;-0.51;93.23;99322.29;1430693;91;21530;-88
2022/02/02 02:00:32;;;;;;;24.43;9.70;;;;;;;-0.54;93.36;99319.91;1415591;91;21413;-87
2022/02/02 02:03:02;;;;;;;20.57;10.03;;;;;;;-0.56;93.86;99317.04;1434422;91;21465;-89
2022/02/02 02:05:29;;;;;;;20.85;10.25;;;;;;;-0.58;94.17;99308.03;1426276;91;21464;-90
2022/02/02 02:07:56;;;;;;;21.02;11.28;;;;;;;-0.60;94.36;99312.52;1432128;91;21457;-88
2022/02/02 02:10:24;;;;;;;20.92;10.45;;;;;;;-0.63;94.66;99318.38;1431539;91;21398;-91
2022/02/02 02:13:00;;;;;;;18.67;9.60;;;;;;;-0.65;94.93;99324.16;1407368;93;22417;-88
2022/02/02 02:15:22;;;;;;;19.65;11.12;;;;;;;-0.72;96.38;99311.59;1397034;93;21406;-89
2022/02/02 02:17:50;;;;;;;20.72;10.58;;;;;;;-0.71;95.73;99309.34;1417086;92;21474;-89
2022/02/02 02:20:17;;;;;;;30.75;12.20;;;;;;;-0.73;96.61;99320.30;1403415;92;21376;-89
2022/02/02 02:22:45;;;;;;;20.37;9.85;;;;;;;-0.75;96.35;99304.44;1410096;92;22436;-89
2022/02/02 02:25:25;;;;;;;25.62;12.73;;;;;;;-0.78;96.93;99307.25;1389543;94;21540;-89
2022/02/02 02:28:02;;;;;;;20.60;11.15;;;;;;;-0.77;96.72;99303.73;1412240;92;21452;-89
2022/02/02 02:30:41;;;;;;;21.97;9.93;;;;;;;-0.81;97.53;99302.27;1404291;93;21643;-91
2022/02/02 02:33:14;;;;;;;24.98;11.57;;;;;;;-0.79;97.34;99291.30;1390017;94;23386;-89
2022/02/02 02:36:18;;;;;;;22.00;10.35;;;;;;;-0.78;97.24;99279.97;1385962;94;23336;-89
2022/02/02 02:38:41;;;;;;;21.97;11.22;;;;;;;-0.80;97.87;99272.77;1354219;96;21423;-87
2022/02/02 02:57:22;;;;;;;16.42;9.80;;;;;;;-0.79;99.94;99249.73;1383061;94;21432;-87
2022/02/02 03:00:07;;;;;;;26.93;11.38;;;;;;;-0.79;100.00;99245.84;1380735;94;21418;-87
2022/02/02 03:35:14;;;;;;;16.40;8.48;;;;;;;-0.44;100.00;99221.31;1375627;94;21433;-90
2022/02/02 03:51:36;;;;;;;13.68;6.90;;;;;;;-0.32;100.00;99202.72;1385623;94;21389;-87
2022/02/02 03:54:31;;;;;;;14.63;8.58;;;;;;;-0.30;100.00;99208.17;1381345;94;22436;-87
2022/02/02 03:56:39;;;;;;;14.03;8.43;;;;;;;-0.27;99.81;99206.66;1386631;94;21447;-91
2022/02/02 03:59:29;;;;;;;10.00;7.00;;;;;;;-0.27;99.94;99199.33;1393093;94;21466;-90
2022/02/02 04:04:39;;;;;;;17.27;7.50;;;;;;;-0.27;99.49;99193.66;1384746;94;21562;-91
2022/02/02 04:07:05;;;;;;;15.30;7.75;;;;;;;-0.26;99.40;99174.98;1384639;94;21580;-92
2022/02/02 04:09:37;;;;;;;14.87;9.25;;;;;;;-0.24;99.00;99174.41;1383804;94;22520;-89
2022/02/02 04:55:54;;;;;;;15.27;8.50;;;;;;;-0.06;98.13;99179.61;1388736;94;21510;-88
2022/02/02 04:58:31;;;;;;;13.60;8.28;;;;;;;-0.08;98.69;99176.28;1386614;94;21882;-87
2022/02/02 05:03:57;;;;;;;19.67;8.70;;;;;;;-0.05;98.34;99179.95;1394448;94;22455;-87
2022/02/02 05:08:49;;;;;;;15.20;8.10;;;;;;;-0.04;98.37;99176.41;1387477;94;22402;-87
2022/02/02 05:11:39;;;;;;;13.50;7.55;;;;;;;-0.04;98.86;99171.20;1376522;94;21736;-87
2022/02/02 05:16:32;;;;;;;20.40;7.03;;;;;;;-0.05;99.66;99172.16;1396315;94;20394;-89
2022/02/02 05:22:05;;;;;;;17.85;8.75;;;;;;;-0.07;100.00;99170.60;1415778;93;22163;-88
2022/02/02 05:51:53;;;;;;;17.43;8.33;;;;;;;0.10;99.19;99176.71;1405963;93;23187;-87
2022/02/02 05:53:54;;;;;;;17.48;8.25;;;;;;;0.10;99.06;99171.51;1398331;93;21572;-86
2022/02/02 05:56:21;;;;;;;16.93;8.23;;;;;;;0.07;99.68;99169.61;1390494;93;22316;-87
2022/02/02 05:58:49;;;;;;;15.33;7.83;;;;;;;0.09;99.24;99161.23;1399652;93;22019;-85
2022/02/02 06:01:16;;;;;;;15.97;7.80;;;;;;;0.11;99.19;99160.63;1402579;92;22987;-85
2022/02/02 06:03:59;;;;;;;13.13;7.43;;;;;;;0.10;99.10;99158.97;1411821;93;21792;-86
2022/02/02 06:06:27;;;;;;;13.45;7.78;;;;;;;0.12;99.10;99150.59;1402218;93;22159;-86
2022/02/02 06:08:55;;;;;;;11.77;7.23;;;;;;;0.14;98.88;99157.31;1403275;93;21324;-87
2022/02/02 06:11:25;;;;;;;18.90;7.53;;;;;;;0.13;98.87;99164.78;1396291;92;22338;-88
2022/02/02 06:14:00;;;;;;;19.42;7.65;;;;;;;0.10;99.23;99158.97;1399750;92;21524;-87
2022/02/02 06:16:26;;;;;;;;;;;;;;;0.12;99.01;99168.33;1404474;93;22411;-84
2022/02/02 06:18:58;;;;;;;18.97;8.30;;;;;;;0.15;98.68;99171.19;1400995;93;20309;-87
2022/02/02 06:21:30;;;;;;;15.23;8.80;;;;;;;0.18;98.25;99167.05;1405283;93;22914;-86
2022/02/02 06:24:13;;;;;;;20.63;10.13;;;;;;;0.19;98.11;99170.00;1412362;93;21376;-87
2022/02/02 06:26:46;;;;;;;18.32;9.05;;;;;;;0.21;97.99;99177.23;1390245;93;21737;-86
2022/02/02 06:29:15;;;;;;;13.78;8.40;;;;;;;0.25;97.67;99179.95;1400675;93;22345;-89
2022/02/02 06:31:44;;;;;;;15.93;9.57;;;;;;;0.23;97.76;99171.42;1399713;93;21560;-85
2022/02/02 06:34:14;;;;;;;14.20;8.85;;;;;;;0.27;97.40;99173.36;1404368;93;22203;-84
2022/02/02 06:36:42;;;;;;;16.07;7.90;;;;;;;0.28;97.51;99178.91;1397159;92;22472;-85
2022/02/02 06:39:12;;;;;;;18.00;9.60;;;;;;;0.28;97.47;99184.11;1405413;92;22475;-88
2022/02/02 06:41:40;;;;;;;10.73;6.27;;;;;;;0.28;97.21;99187.54;1400439;93;21512;-88
2022/02/02 06:44:07;;;;;;;15.90;7.93;;;;;;;0.27;97.59;99194.17;1399327;93;21698;-84
2022/02/02 06:46:38;;;;;;;20.17;10.33;;;;;;;0.28;97.44;99203.16;1401289;93;21708;-88
2022/02/02 06:49:03;;;;;;;20.27;9.03;;;;;;;0.32;96.97;99199.41;1407052;93;22083;-86
2022/02/02 06:51:40;;;;;;;16.77;9.57;;;;;;;0.34;96.76;99186.27;1402394;92;21709;-86
2022/02/02 06:54:22;;;;;;;22.13;10.63;;;;;;;0.34;96.97;99191.47;1405302;93;21527;-86
2022/02/02 06:57:01;;;;;;;22.77;9.53;;;;;;;0.35;96.83;99187.47;1408028;93;22668;-86
2022/02/02 07:02:27;;;;;;;18.83;9.77;;;;;;;0.34;96.92;99186.27;1410198;93;21967;-85
2022/02/02 07:05:14;;;;;;;19.90;9.65;;;;;;;0.36;96.66;99186.51;1408680;93;21684;-85
2022/02/02 07:29:26;;;;;;;19.70;11.03;;;;;;;0.57;95.17;99202.78;1403861;93;21844;-87
2022/02/02 07:32:15;;;;;;;19.67;11.30;;;;;;;0.62;94.76;99205.88;1406519;93;21493;-86
2022/02/02 07:35:19;;;;;;;16.60;9.70;;;;;;;0.65;94.50;99201.27;1403318;93;21950;-87
2022/02/02 07:38:09;;;;;;;;;;;;;;;0.71;94.12;99196.08;1412083;93;23598;-86
2022/02/02 07:40:42;;;;;;;19.03;11.27;;;;;;;0.71;93.97;99199.98;1408421;93;20442;-86
2022/02/02 07:43:18;;;;;;;18.23;8.97;;;;;;;0.76;93.75;99204.38;1400864;92;21542;-87
2022/02/02 07:45:49;;;;;;;12.93;6.80;;;;;;;0.81;93.59;99193.15;1404711;93;21773;-87
2022/02/02 07:48:16;;;;;;;14.85;8.83;;;;;;;0.77;93.28;99196.91;1397539;93;21635;-87
2022/02/02 07:50:45;;;;;;;16.40;8.77;;;;;;;0.81;92.83;99193.15;1402004;93;21433;-86
2022/02/02 07:53:13;;;;;;;22.43;10.07;;;;;;;0.81;92.55;99195.75;1387951;93;21807;-87
2022/02/02 07:55:44;;;;;;;13.57;8.33;;;;;;;0.82;92.61;99199.18;1398428;93;21624;-86
2022/02/02 07:58:13;;;;;;;21.23;11.27;;;;;;;0.84;92.55;99205.94;1425808;90;21615;-87
2022/02/02 08:00:39;;;;;;;18.33;11.53;;;;;;;0.86;92.40;99209.27;1438789;91;21783;-86
2022/02/02 08:03:11;;;;;;;14.53;9.33;;;;;;;0.87;92.27;99203.10;1431831;91;21443;-87
2022/02/02 08:05:45;;;;;;;15.90;10.13;;;;;;;0.93;92.17;99209.63;1416074;91;21622;-86
2022/02/02 08:08:25;;;;;;;20.60;10.47;;;;;;;0.99;91.60;99210.45;1427068;91;21621;-87
2022/02/02 08:10:42;;;;;;;19.75;9.10;;;;;;;1.01;91.39;99212.96;1430388;91;22589;-85
2022/02/02 08:13:23;;;;;;;18.53;10.00;;;;;;;1.03;91.29;99209.27;1431602;90;22463;-85
2022/02/02 08:15:54;;;;;;;17.47;9.57;;;;;;;1.09;91.22;99214.48;1426959;91;21631;-85
2022/02/02 08:18:14;;;;;;;16.77;9.37;;;;;;;1.07;90.87;99211.19;1426929;91;21802;-80
2022/02/02 08:20:41;;;;;;;19.43;10.27;;;;;;;1.07;90.79;99213.31;1417185;91;21715;-80
2022/02/02 08:23:08;;;;;;;16.13;9.57;;;;;;;1.09;90.79;99222.30;1408675;92;21773;-81
2022/02/02 08:25:37;;;;;;;16.43;8.93;;;;;;;1.04;90.67;99221.84;1422852;92;21751;-80
2022/02/02 08:28:05;;;;;;;18.53;10.03;;;;;;;1.01;90.72;99216.87;1414752;92;22629;-80
2022/02/02 08:30:32;;;;;;;18.43;8.17;;;;;;;1.01;90.64;99225.52;1419290;92;21625;-80
2022/02/02 08:33:04;;;;;;;18.43;9.63;;;;;;;1.04;90.53;99227.06;1409841;92;21661;-80
2022/02/02 08:35:36;;;;;;;22.83;10.00;;;;;;;1.07;90.41;99224.22;1424010;92;21692;-80
2022/02/02 08:40:57;;;;;;;22.57;11.23;;;;;;;1.18;90.20;99209.05;1429644;91;21699;-80
2022/02/02 08:43:27;;;;;;;18.13;8.77;;;;;;;1.27;89.92;99210.48;1422055;91;22705;-80
2022/02/02 08:45:48;;;;;;;14.70;9.00;;;;;;;1.47;89.60;99196.39;1436852;91;21853;-83
2022/02/02 08:48:23;;;;;;;16.43;8.17;;;;;;;1.65;89.18;99195.41;1430147;91;21743;-82
2022/02/02 08:50:55;;;;;;;16.00;7.67;;;;;;;1.86;87.56;99188.97;1431353;91;21871;-83
2022/02/02 09:00:53;;;;;;;15.07;8.47;;;;;;;2.21;85.43;99207.83;1429956;91;23453;-82
2022/02/02 09:06:06;;;;;;;14.53;8.63;;;;;;;2.17;84.84;99214.26;1426298;91;21815;-82
2022/02/02 09:08:34;;;;;;;17.37;9.13;;;;;;;2.17;84.49;99219.48;1420679;91;21725;-82
2022/02/02 09:25:15;;;;;;;17.67;10.30;;;;;;;2.53;83.54;99217.43;1411634;92;22644;-83
2022/02/02 09:35:40;;;;;;;19.90;9.93;;;;;;;2.90;82.04;99209.16;1327737;93;21884;-82
2022/02/02 09:38:08;;;;;;;15.77;9.87;;;;;;;2.98;80.67;99200.20;1397658;92;21811;-82
2022/02/02 09:43:08;;;;;;;17.07;8.50;;;;;;;2.94;80.75;99197.52;1443082;91;21993;-83
2022/02/02 09:45:36;;;;;;;22.53;11.00;;;;;;;2.90;80.68;99203.94;1389584;92;21383;-83
2022/02/02 09:48:13;;;;;;;24.60;12.30;;;;;;;2.83;81.06;99204.11;1409480;92;22184;-82
2022/02/02 09:50:43;;;;;;;19.93;10.43;;;;;;;2.68;81.18;99203.78;1411141;90;22295;-84
2022/02/02 09:53:07;;;;;;;14.87;7.87;;;;;;;2.55;82.63;99203.78;1394150;92;22160;-82
2022/02/02 10:10:24;;;;;;;18.03;9.27;;;;;;;2.89;80.66;99202.29;1372877;92;22416;-82
2022/02/02 10:15:20;;;;;;;11.87;7.60;;;;;;;2.73;82.35;99197.98;1389752;92;22282;-82
2022/02/02 10:18:17;;;;;;;18.47;9.43;;;;;;;2.73;82.35;99197.98;1389996;91;22309;-82
2022/02/02 10:20:39;;;;;;;21.30;10.67;;;;;;;2.73;82.59;99196.67;1391228;92;21913;-82
2022/02/02 10:23:07;;;;;;;15.43;9.10;;;;;;;2.72;82.52;99191.94;1412427;91;22852;-83
2022/02/02 10:25:43;;;;;;;15.53;8.67;;;;;;;2.91;82.50;99206.92;1411111;92;21788;-83
2022/02/02 10:28:15;;;;;;;13.60;7.77;;;;;;;2.91;82.50;99206.92;1412459;92;23230;-83
2022/02/02 10:30:53;;;;;;;16.53;9.07;;;;;;;2.96;81.40;99210.44;1402232;92;21892;-83
2022/02/02 10:33:28;;;;;;;12.77;8.60;;;;;;;3.02;81.93;99196.84;1401891;93;23191;-84
2022/02/02 10:36:10;;;;;;;11.27;7.23;;;;;;;2.99;81.35;99196.62;1349928;93;21987;-83
2022/02/02 10:38:42;;;;;;;13.83;8.27;;;;;;;2.94;81.41;99193.59;1464933;93;22150;-83
2022/02/02 10:43:53;;;;;;;12.70;6.80;;;;;;;2.92;81.86;99194.19;1479578;93;21901;-84
2022/02/02 10:46:38;;;;;;;16.33;9.13;;;;;;;2.87;82.15;99187.20;1463016;93;23123;-83
2022/02/02 10:49:24;;;;;;;13.50;7.87;;;;;;;2.85;82.13;99186.50;1481461;91;22120;-84
2022/02/02 10:55:14;;;;;;;13.77;7.93;;;;;;;3.04;82.07;99189.23;1346348;93;22195;-83
2022/02/02 11:07:58;;;;;;;22.07;8.50;;;;;;;2.92;82.43;99194.19;1406386;92;22083;-83
2022/02/02 11:10:29;;;;;;;16.65;8.18;;;;;;;2.96;82.87;99194.27;1392931;93;22211;-83
2022/02/02 11:12:58;;;;;;;16.80;7.80;;;;;;;3.11;83.06;99189.08;1441638;93;21886;-85
2022/02/02 11:15:40;;;;;;;15.17;6.80;;;;;;;3.19;82.25;99181.04;1391896;93;21372;-83
2022/02/02 11:18:18;;;;;;;15.33;7.30;;;;;;;3.23;81.39;99182.45;1405527;92;22169;-83
2022/02/02 11:20:46;;;;;;;12.83;6.83;;;;;;;3.32;81.54;99186.89;1406968;93;22156;-83
2022/02/02 11:23:14;;;;;;;15.43;7.47;;;;;;;3.32;80.80;99187.71;1407461;93;22146;-82
2022/02/02 11:25:59;;;;;;;33.17;11.57;;;;;;;3.28;81.18;99188.95;1407352;91;22976;-84
2022/02/02 11:28:36;;;;;;;26.43;10.40;;;;;;;3.27;81.30;99181.22;1404448;93;23240;-82
2022/02/02 11:31:14;;;;;;;26.73;9.97;;;;;;;3.41;81.45;99196.55;1388836;93;22307;-82
2022/02/02 11:33:49;;;;;;;75.27;25.37;;;;;;;3.43;81.03;99196.44;1402435;93;22072;-83
2022/02/02 11:36:38;;;;;;;66.63;22.00;;;;;;;3.52;81.57;99191.23;1335391;93;22123;-83
2022/02/02 11:39:24;;;;;;;16.90;10.37;;;;;;;3.75;81.96;99191.02;1418439;92;23546;-83
2022/02/02 11:41:57;;;;;;;11.60;7.57;;;;;;;3.88;80.82;99184.22;1352682;91;22092;-83
2022/02/02 11:44:49;;;;;;;14.73;9.10;;;;;;;3.89;79.87;99194.56;1388558;91;22265;-83
2022/02/02 11:50:01;;;;;;;15.30;8.80;;;;;;;3.77;79.33;99191.69;1406029;93;23094;-83
2022/02/02 11:52:43;;;;;;;19.87;10.40;;;;;;;3.66;79.62;99178.75;1375659;93;23190;-83
2022/02/02 11:55:16;;;;;;;22.23;10.80;;;;;;;3.62;80.61;99174.23;1404303;92;22144;-82
2022/02/02 11:58:12;;;;;;;19.07;12.37;;;;;;;3.55;80.50;99177.05;1406927;93;22101;-82
2022/02/02 12:00:44;;;;;;;23.03;13.90;;;;;;;3.52;80.27;99187.79;1402537;91;22313;-82
2022/02/02 12:08:37;;;;;;;14.10;9.53;;;;;;;3.21;80.85;99214.43;1404817;93;21608;-81
2022/02/02 12:44:51;;;;;;;14.20;9.13;;;;;;;3.55;81.34;99201.91;1387232;94;22342;-81
2022/02/02 12:47:07;;;;;;;16.70;9.60;;;;;;;3.55;81.08;99193.58;1407070;92;22217;-80
2022/02/02 12:58:06;;;;;;;31.23;14.90;;;;;;;3.64;80.95;99201.59;1414758;91;22370;-79
2022/02/02 13:00:51;;;;;;;24.25;13.30;;;;;;;3.54;80.57;99201.55;1411349;92;22189;-83
2022/02/02 13:03:09;;;;;;;17.83;8.90;;;;;;;3.57;80.81;99201.30;1404698;92;22642;-82
2022/02/02 13:05:39;;;;;;;19.57;10.63;;;;;;;3.58;81.06;99211.62;1409866;92;22120;-82
2022/02/02 13:08:08;;;;;;;16.10;9.43;;;;;;;3.56;80.72;99215.33;1409283;92;23297;-82
2022/02/02 13:10:37;;;;;;;16.13;10.13;;;;;;;3.56;80.69;99210.92;1413611;92;23354;-82
2022/02/02 13:13:21;;;;;;;20.20;11.50;;;;;;;3.52;80.57;99222.63;1394552;92;23015;-82
2022/02/02 13:15:57;;;;;;;16.20;9.77;;;;;;;3.46;80.68;99223.16;1409326;92;22417;-81
2022/02/02 13:18:33;;;;;;;15.00;9.17;;;;;;;3.49;81.20;99230.73;1389325;92;22364;-82
2022/02/02 13:21:21;;;;;;;27.00;11.87;;;;;;;3.49;81.20;99230.73;1411534;92;22266;-82
2022/02/02 13:26:46;;;;;;;34.83;16.40;;;;;;;3.60;81.45;99221.48;1495510;91;21937;-81
2022/02/02 13:29:29;;;;;;;23.03;12.10;;;;;;;3.74;81.33;99226.84;1485025;91;21994;-82
2022/02/02 13:32:08;;;;;;;27.43;12.17;;;;;;;3.86;81.39;99231.48;1410348;92;23262;-81
2022/02/02 13:34:50;;;;;;;27.27;12.73;;;;;;;4.01;81.98;99230.13;1471693;92;22209;-82
2022/02/02 13:46:12;;;;;;;24.75;11.97;;;;;;;4.16;78.90;99254.63;1375729;92;21651;-81
2022/02/02 14:02:12;;;;;;;22.73;13.30;;;;;;;3.96;76.73;99282.55;1418394;91;22317;-81
2022/02/02 14:07:40;;;;;;;24.57;12.00;;;;;;;3.93;77.53;99291.97;1500609;90;22057;-81
2022/02/02 14:10:07;;;;;;;20.93;10.70;;;;;;;3.82;77.44;99295.51;1476004;92;22252;-81
2022/02/02 14:31:23;;;;;;;28.60;15.23;;;;;;;3.39;78.83;99308.31;1381032;93;22247;-81
2022/02/02 14:33:55;;;;;;;27.70;14.13;;;;;;;3.35;79.17;99312.16;1384899;93;22079;-81
2022/02/02 14:36:28;;;;;;;25.07;15.00;;;;;;;3.31;79.46;99315.97;1481605;92;22806;-81
2022/02/02 14:39:05;;;;;;;25.03;16.03;;;;;;;3.20;79.44;99308.22;1439713;93;22126;-81
2022/02/02 14:44:06;;;;;;;29.03;15.10;;;;;;;3.14;79.89;99326.55;1401830;93;22060;-82
2022/02/02 14:46:39;;;;;;;36.77;16.10;;;;;;;3.12;79.91;99336.30;1404207;93;22111;-81
2022/02/02 14:49:12;;;;;;;27.37;15.93;;;;;;;3.13;80.36;99344.00;1402053;93;21912;-81
2022/02/02 14:51:46;;;;;;;24.07;13.03;;;;;;;3.13;80.36;99344.00;1401054;93;22346;-82
2022/02/02 14:54:29;;;;;;;23.20;15.30;;;;;;;3.09;80.25;99350.45;1346712;93;22100;-83
2022/02/02 15:24:35;;;;;;;22.37;13.57;;;;;;;2.81;81.39;99371.95;1481203;93;21842;-83
2022/02/02 15:32:12;;;;;;;21.17;14.70;;;;;;;2.74;81.69;99378.16;1481315;93;21806;-82
2022/02/02 15:34:46;;;;;;;29.63;18.50;;;;;;;2.69;82.13;99378.52;1335133;92;21696;-82
2022/02/02 15:39:43;;;;;;;30.67;17.53;;;;;;;2.80;81.85;99397.26;1335098;92;21831;-82
2022/02/02 15:58:16;;;;;;;40.27;21.77;;;;;;;2.65;82.01;99396.70;1465458;93;21794;-82
2022/02/02 16:01:35;;;;;;;39.47;22.77;;;;;;;2.61;82.11;99406.20;1395503;93;21716;-82
2022/02/02 16:03:34;;;;;;;45.37;24.27;;;;;;;2.59;82.06;99427.23;1377756;93;21781;-82
2022/02/02 16:06:04;;;;;;;36.73;21.50;;;;;;;2.53;82.39;99432.92;1405058;93;21832;-82
2022/02/02 16:08:28;;;;;;;40.13;22.50;;;;;;;2.42;83.00;99436.39;1373274;93;21870;-83
2022/02/02 16:13:41;;;;;;;35.87;21.73;;;;;;;2.40;82.76;99445.30;1364095;93;21443;-82
2022/02/02 16:16:26;;;;;;;35.23;21.77;;;;;;;2.38;82.87;99457.63;1407330;93;22582;-82
2022/02/02 16:18:49;;;;;;;47.50;30.83;;;;;;;2.33;82.99;99453.23;1424875;93;22002;-82
2022/02/02 16:37:42;;;;;;;30.67;20.63;;;;;;;2.04;84.70;99466.74;1411379;92;21794;-82
2022/02/02 16:40:15;;;;;;;29.50;20.37;;;;;;;2.00;85.23;99480.50;1413368;91;21900;-82
2022/02/02 16:45:30;;;;;;;39.70;21.33;;;;;;;1.84;86.39;99484.38;1413158;92;21752;-83
2022/02/02 16:47:58;;;;;;;33.35;19.48;;;;;;;1.79;85.97;99482.96;1418986;92;22564;-83
2022/02/02 16:50:30;;;;;;;38.73;22.03;;;;;;;1.79;85.87;99478.22;1409413;92;21504;-83
2022/02/02 16:52:58;;;;;;;32.50;18.83;;;;;;;1.77;85.99;99484.84;1411118;92;21602;-83
2022/02/02 16:55:36;;;;;;;33.17;20.90;;;;;;;1.77;86.29;99484.02;1411842;92;21684;-83
2022/02/02 16:58:08;;;;;;;31.33;19.57;;;;;;;1.73;86.35;99477.38;1411954;92;21719;-83
2022/02/02 17:27:16;;;;;;;40.87;24.20;;;;;;;1.34;86.72;99506.73;1416908;91;21645;-83
2022/02/02 17:31:05;;;;;;;85.93;31.37;;;;;;;1.26;86.89;99495.55;1413658;92;21928;-83
2022/02/02 17:33:41;;;;;;;57.37;29.77;;;;;;;1.24;86.99;99506.58;1416774;92;22151;-83
2022/02/02 17:38:54;;;;;;;43.78;26.23;;;;;;;1.19;87.89;99499.55;1414196;92;21830;-81
2022/02/02 18:00:50;;;;;;;46.20;25.52;;;;;;;1.11;90.15;99550.09;1416107;92;21759;-82
2022/02/02 18:18:55;;;;;;;50.67;32.37;;;;;;;0.97;89.35;99562.78;1415839;92;21606;-84
2022/02/02 18:21:22;;;;;;;56.47;31.57;;;;;;;0.96;90.46;99573.33;1415349;91;22684;-84
2022/02/02 18:28:59;;;;;;;44.40;24.73;;;;;;;0.97;90.15;99584.93;1397213;92;21780;-84
2022/02/02 18:34:05;;;;;;;58.52;34.20;;;;;;;1.04;89.92;99590.56;1495004;92;21472;-83
2022/02/02 18:55:11;;;;;;;72.67;46.10;;;;;;;0.98;89.09;99602.69;1417049;92;21649;-81
2022/02/02 19:38:23;;;;;;;50.60;30.27;;;;;;;1.12;90.38;99710.28;1455155;92;21536;-81
2022/02/02 19:40:39;;;;;;;57.43;34.67;;;;;;;1.19;89.99;99704.17;1433194;92;21737;-81
2022/02/02 20:07:41;;;;;;;72.60;42.60;;;;;;;1.19;89.21;99739.36;1399387;92;21848;-81
2022/02/02 20:10:04;;;;;;;52.67;31.60;;;;;;;1.17;89.15;99742.53;1411302;92;21924;-81
2022/02/02 20:12:34;;;;;;;58.17;35.30;;;;;;;1.16;89.06;99744.78;1394666;93;21955;-81
2022/02/02 20:15:01;;;;;;;64.00;37.00;;;;;;;1.13;89.08;99742.39;1409428;92;21491;-81
2022/02/02 20:17:28;;;;;;;68.23;40.00;;;;;;;1.12;89.41;99741.56;1411227;92;22209;-81
2022/02/02 20:20:10;;;;;;;70.07;37.10;;;;;;;1.18;89.42;99736.84;1414017;92;22115;-81
2022/02/02 20:22:28;;;;;;;77.67;45.53;;;;;;;1.19;89.37;99740.66;1411977;92;22050;-81
2022/02/02 20:25:01;;;;;;;81.23;43.27;;;;;;;1.18;89.04;99737.70;1411000;93;21646;-80
2022/02/02 20:27:26;;;;;;;62.10;39.13;;;;;;;1.16;88.96;99741.34;1377719;92;21885;-81
2022/02/02 20:29:54;;;;;;;52.33;32.00;;;;;;;1.18;89.08;99739.45;1345788;92;22520;-81
2022/02/02 20:32:21;;;;;;;90.30;50.37;;;;;;;1.12;88.73;99740.70;1398165;92;21756;-81
2022/02/02 20:34:48;;;;;;;108.97;54.90;;;;;;;1.04;88.65;99743.02;1412701;92;21859;-81
2022/02/02 20:37:18;;;;;;;86.60;49.27;;;;;;;1.00;88.64;99749.35;1409517;93;21827;-81
2022/02/02 20:39:55;;;;;;;65.80;37.13;;;;;;;0.97;88.93;99749.56;1428780;92;22625;-81
2022/02/02 20:42:41;;;;;;;83.83;47.43;;;;;;;0.94;88.86;99753.68;1367623;93;22825;-81
2022/02/02 21:04:52;;;;;;;50.60;31.83;;;;;;;0.59;90.21;99781.11;1426287;91;23713;-81
2022/02/02 21:07:29;;;;;;;58.07;32.73;;;;;;;0.57;90.08;99796.47;1439214;90;21873;-81
2022/02/02 21:10:07;;;;;;;53.07;31.47;;;;;;;0.50;90.13;99804.33;1445514;88;22428;-81
2022/02/02 21:15:29;;;;;;;63.73;37.23;;;;;;;0.44;90.61;99810.28;1458279;88;21367;-81
2022/02/02 21:18:13;;;;;;;69.27;39.40;;;;;;;0.44;90.52;99816.80;1465887;88;21846;-81
2022/02/02 21:24:18;;;;;;;47.38;27.80;;;;;;;0.40;91.41;99829.65;1446147;90;20286;-81
2022/02/02 21:25:49;;;;;;;56.90;31.93;;;;;;;0.42;90.94;99840.78;1441500;88;21448;-81
2022/02/02 21:28:15;;;;;;;49.67;31.03;;;;;;;0.35;91.16;99839.52;1441601;90;21522;-81
2022/02/02 21:30:44;;;;;;;50.60;30.00;;;;;;;0.31;91.18;99847.13;1449726;90;21793;-81
2022/02/02 21:33:14;;;;;;;54.63;33.43;;;;;;;0.28;91.15;99862.94;1448262;90;22107;-81
2022/02/02 21:35:42;;;;;;;46.07;28.70;;;;;;;0.27;90.87;99879.50;1445415;90;21664;-81
2022/02/02 21:38:19;;;;;;;50.43;29.83;;;;;;;0.27;91.27;99896.42;1448337;89;21712;-81
2022/02/02 21:40:39;;;;;;;52.53;30.80;;;;;;;0.31;91.23;99904.87;1449592;88;21590;-81
2022/02/02 21:43:06;;;;;;;49.87;30.57;;;;;;;0.34;91.60;99907.28;1468608;88;23550;-81
2022/02/02 21:45:33;;;;;;;59.87;34.87;;;;;;;0.34;91.68;99912.48;1448590;88;21648;-81
2022/02/02 21:48:01;;;;;;;57.93;32.20;;;;;;;0.38;91.28;99917.42;1450427;88;21797;-81
2022/02/02 21:50:42;;;;;;;58.33;32.83;;;;;;;0.42;91.40;99924.09;1453003;90;21738;-81
2022/02/02 21:52:58;;;;;;;51.03;30.90;;;;;;;0.42;91.39;99926.70;1453051;90;21683;-81
2022/02/02 21:55:26;;;;;;;56.73;33.30;;;;;;;0.48;91.27;99933.77;1448082;89;21779;-81
2022/02/02 21:57:53;;;;;;;53.97;33.80;;;;;;;0.50;91.54;99941.86;1425715;90;21573;-81
2022/02/02 22:00:20;;;;;;;65.47;35.90;;;;;;;0.50;91.14;99942.33;1449320;89;21671;-81
2022/02/02 22:02:47;;;;;;;58.57;35.97;;;;;;;0.50;90.87;99941.02;1448903;89;21610;-81
2022/02/02 22:05:14;;;;;;;64.43;37.87;;;;;;;0.52;90.96;99953.45;1451104;90;21844;-81
2022/02/02 22:07:41;;;;;;;69.07;37.53;;;;;;;0.54;91.23;99951.13;1453722;88;21945;-81
2022/02/02 22:10:09;;;;;;;68.97;39.50;;;;;;;0.56;90.77;99954.96;1457766;88;22705;-81